Aérodrome :
LOGIN :

S'inscrire | Disclaimer

   EN    FR    IT 

 










Légende :    VFR   VFR Marginal   IFR   IFR Intensif   IFR Très Intensif
Visi : 
Plafond : 
>= 8 km
>= 3000ft
5 à 8 km
1000 à 3000 ft
1500m à 5 km
500 à 1000 ft
800 à 1500m
200 à 500 ft
< 800m
< 200 ft
Symboles :   Orages  Brouillard  Fortes neiges  Fortes précipitations  Vent > 20 kt
SIGMETs :   Divers  Orages  Givrage  Turbulence  Onde Orograph.  Cendres Volcan.






- Altitude de l'aérodrome : 297 ft
- Code IATA : UIP


LFRQ - Quimper Pluguffan

DERNIER METAR :
  • 160730Z AUTO 04006KT 010V070 CAVOK 06/02 Q1028 NOSIG

METARs EXPIRÉS :
  • 160700Z AUTO 05005KT 010V080 CAVOK 05/02 Q1028 NOSIG
  • 160630Z AUTO 05005KT CAVOK 03/01 Q1028 NOSIG
  • 160600Z AUTO 04004KT CAVOK 02/00 Q1028 NOSIG
  • 160530Z AUTO 03003KT CAVOK 01/M00 Q1028 NOSIG
  • 160500Z AUTO VRB01KT CAVOK 02/00 Q1028

TAF TAF LFRQ
Valide du 16 à 06h jusqu'au 17 à 06h UTC


160500Z 1606/1706 03005KT CAVOK
TEMPO 1615/1618 24010KT



MET'MAP, la Météo Aéronautique d'un coup d'oeil ! - Copyright ORBIFLY Décembre 2007 - Disclaimer

ORBIFLY MET'MAP TEAM :

Programmation & Développement : Alexandra Zaïnal
Sur une idée originale de : Baudouin d'Aumeries
Assistance à la programmation : Marc-Olivier Méhu
Soutien technique & logistique : Manuel Goepfert

Contact : metmap@orbifly.com




SOURCES & CREDITS :

   NOAA